sensor_id;sensor_type;location;lat;lon;timestamp;temperature;humidity
7894;DHT22;51343;51.396;6.656;2022-09-09T00:00:38;14.70;99.90
7894;DHT22;51343;51.396;6.656;2022-09-09T00:03:07;14.70;99.90
7894;DHT22;51343;51.396;6.656;2022-09-09T00:05:41;14.70;99.90
7894;DHT22;51343;51.396;6.656;2022-09-09T00:08:12;14.80;99.90
7894;DHT22;51343;51.396;6.656;2022-09-09T00:10:41;14.70;99.90
7894;DHT22;51343;51.396;6.656;2022-09-09T00:13:11;14.70;99.90
7894;DHT22;51343;51.396;6.656;2022-09-09T00:15:43;14.70;99.90
7894;DHT22;51343;51.396;6.656;2022-09-09T00:18:15;14.60;99.90
7894;DHT22;51343;51.396;6.656;2022-09-09T00:20:46;14.60;99.90
7894;DHT22;51343;51.396;6.656;2022-09-09T00:23:17;14.60;99.90
7894;DHT22;51343;51.396;6.656;2022-09-09T00:25:47;14.70;99.90
7894;DHT22;51343;51.396;6.656;2022-09-09T00:28:17;14.70;99.90
7894;DHT22;51343;51.396;6.656;2022-09-09T00:30:44;14.70;99.90
7894;DHT22;51343;51.396;6.656;2022-09-09T00:33:13;14.70;99.90
7894;DHT22;51343;51.396;6.656;2022-09-09T00:35:42;14.70;99.90
7894;DHT22;51343;51.396;6.656;2022-09-09T00:38:12;14.70;99.90
7894;DHT22;51343;51.396;6.656;2022-09-09T00:40:41;14.70;99.90
7894;DHT22;51343;51.396;6.656;2022-09-09T00:46:09;14.70;99.90
7894;DHT22;51343;51.396;6.656;2022-09-09T00:48:39;14.70;99.90
7894;DHT22;51343;51.396;6.656;2022-09-09T00:51:08;14.70;99.90
7894;DHT22;51343;51.396;6.656;2022-09-09T00:53:41;14.70;99.90
7894;DHT22;51343;51.396;6.656;2022-09-09T00:56:11;14.80;99.90
7894;DHT22;51343;51.396;6.656;2022-09-09T00:58:39;14.80;99.90
7894;DHT22;51343;51.396;6.656;2022-09-09T01:01:08;14.80;99.90
7894;DHT22;51343;51.396;6.656;2022-09-09T01:03:38;14.70;99.90
7894;DHT22;51343;51.396;6.656;2022-09-09T01:06:14;14.70;99.90
7894;DHT22;51343;51.396;6.656;2022-09-09T01:11:29;14.70;99.90
7894;DHT22;51343;51.396;6.656;2022-09-09T01:14:00;14.60;99.90
7894;DHT22;51343;51.396;6.656;2022-09-09T01:16:28;14.60;99.90
7894;DHT22;51343;51.396;6.656;2022-09-09T01:18:56;14.60;99.90
7894;DHT22;51343;51.396;6.656;2022-09-09T01:21:26;14.60;99.90
7894;DHT22;51343;51.396;6.656;2022-09-09T01:24:09;14.60;99.90
7894;DHT22;51343;51.396;6.656;2022-09-09T01:26:40;14.50;99.90
7894;DHT22;51343;51.396;6.656;2022-09-09T01:29:07;14.50;99.90
7894;DHT22;51343;51.396;6.656;2022-09-09T01:31:36;14.50;99.90
7894;DHT22;51343;51.396;6.656;2022-09-09T01:34:07;14.50;99.90
7894;DHT22;51343;51.396;6.656;2022-09-09T01:36:37;14.50;99.90
7894;DHT22;51343;51.396;6.656;2022-09-09T01:39:04;14.50;99.90
7894;DHT22;51343;51.396;6.656;2022-09-09T01:41:31;14.50;99.90
7894;DHT22;51343;51.396;6.656;2022-09-09T01:43:59;14.50;99.90
7894;DHT22;51343;51.396;6.656;2022-09-09T01:46:25;14.50;99.90
7894;DHT22;51343;51.396;6.656;2022-09-09T01:48:54;14.60;99.90
7894;DHT22;51343;51.396;6.656;2022-09-09T01:51:22;14.70;99.90
7894;DHT22;51343;51.396;6.656;2022-09-09T01:53:51;14.80;99.90
7894;DHT22;51343;51.396;6.656;2022-09-09T01:56:21;14.80;99.90
7894;DHT22;51343;51.396;6.656;2022-09-09T01:58:55;14.90;99.90
7894;DHT22;51343;51.396;6.656;2022-09-09T02:01:26;14.90;99.90
7894;DHT22;51343;51.396;6.656;2022-09-09T02:03:56;14.90;99.90
7894;DHT22;51343;51.396;6.656;2022-09-09T02:06:25;14.90;99.90
7894;DHT22;51343;51.396;6.656;2022-09-09T02:08:54;14.90;99.90
7894;DHT22;51343;51.396;6.656;2022-09-09T02:11:22;15.00;99.90
7894;DHT22;51343;51.396;6.656;2022-09-09T02:13:51;15.00;99.90
7894;DHT22;51343;51.396;6.656;2022-09-09T02:16:21;15.00;99.90
7894;DHT22;51343;51.396;6.656;2022-09-09T02:18:55;15.00;99.90
7894;DHT22;51343;51.396;6.656;2022-09-09T02:21:22;15.00;99.90
7894;DHT22;51343;51.396;6.656;2022-09-09T02:23:49;15.00;99.90
7894;DHT22;51343;51.396;6.656;2022-09-09T02:26:17;15.00;99.90
7894;DHT22;51343;51.396;6.656;2022-09-09T02:28:47;15.00;99.90
7894;DHT22;51343;51.396;6.656;2022-09-09T02:31:14;15.00;99.90
7894;DHT22;51343;51.396;6.656;2022-09-09T02:33:43;15.00;99.90
7894;DHT22;51343;51.396;6.656;2022-09-09T02:36:13;15.00;99.90
7894;DHT22;51343;51.396;6.656;2022-09-09T02:38:42;15.00;99.90
7894;DHT22;51343;51.396;6.656;2022-09-09T02:41:11;15.00;99.90
7894;DHT22;51343;51.396;6.656;2022-09-09T02:43:38;14.90;99.90
7894;DHT22;51343;51.396;6.656;2022-09-09T02:46:07;14.90;99.90
7894;DHT22;51343;51.396;6.656;2022-09-09T02:48:36;15.00;99.90
7894;DHT22;51343;51.396;6.656;2022-09-09T02:51:10;15.00;99.90
7894;DHT22;51343;51.396;6.656;2022-09-09T02:53:42;15.10;99.90
7894;DHT22;51343;51.396;6.656;2022-09-09T02:56:13;15.00;99.90
7894;DHT22;51343;51.396;6.656;2022-09-09T02:58:41;15.00;99.90
7894;DHT22;51343;51.396;6.656;2022-09-09T03:01:08;15.10;99.90
7894;DHT22;51343;51.396;6.656;2022-09-09T03:03:35;15.10;99.90
7894;DHT22;51343;51.396;6.656;2022-09-09T03:06:01;15.10;99.90
7894;DHT22;51343;51.396;6.656;2022-09-09T03:08:28;15.10;99.90
7894;DHT22;51343;51.396;6.656;2022-09-09T03:10:57;15.10;99.90
7894;DHT22;51343;51.396;6.656;2022-09-09T03:13:26;15.10;99.90
7894;DHT22;51343;51.396;6.656;2022-09-09T03:15:53;15.10;99.90
7894;DHT22;51343;51.396;6.656;2022-09-09T03:18:19;15.10;99.90
7894;DHT22;51343;51.396;6.656;2022-09-09T03:20:46;15.10;99.90
7894;DHT22;51343;51.396;6.656;2022-09-09T03:23:14;15.10;99.90
7894;DHT22;51343;51.396;6.656;2022-09-09T03:25:45;15.10;99.90
7894;DHT22;51343;51.396;6.656;2022-09-09T03:28:13;15.10;99.90
7894;DHT22;51343;51.396;6.656;2022-09-09T03:30:40;15.10;99.90
7894;DHT22;51343;51.396;6.656;2022-09-09T03:33:07;15.10;99.90
7894;DHT22;51343;51.396;6.656;2022-09-09T03:35:33;15.20;99.90
7894;DHT22;51343;51.396;6.656;2022-09-09T03:38:00;15.20;99.90
7894;DHT22;51343;51.396;6.656;2022-09-09T03:40:27;15.30;99.90
7894;DHT22;51343;51.396;6.656;2022-09-09T03:42:53;15.30;99.90
7894;DHT22;51343;51.396;6.656;2022-09-09T03:45:21;15.30;99.90
7894;DHT22;51343;51.396;6.656;2022-09-09T03:47:48;15.30;99.90
7894;DHT22;51343;51.396;6.656;2022-09-09T03:50:15;15.30;99.90
7894;DHT22;51343;51.396;6.656;2022-09-09T03:52:43;15.30;99.90
7894;DHT22;51343;51.396;6.656;2022-09-09T03:55:10;15.30;99.90
7894;DHT22;51343;51.396;6.656;2022-09-09T03:57:36;15.30;99.90
7894;DHT22;51343;51.396;6.656;2022-09-09T04:00:03;15.30;99.90
7894;DHT22;51343;51.396;6.656;2022-09-09T04:02:31;15.30;99.90
7894;DHT22;51343;51.396;6.656;2022-09-09T04:04:58;15.40;99.90
7894;DHT22;51343;51.396;6.656;2022-09-09T04:07:24;15.40;99.90
7894;DHT22;51343;51.396;6.656;2022-09-09T04:09:52;15.40;99.90
7894;DHT22;51343;51.396;6.656;2022-09-09T04:12:19;15.40;99.90
7894;DHT22;51343;51.396;6.656;2022-09-09T04:14:47;15.40;99.90
7894;DHT22;51343;51.396;6.656;2022-09-09T04:17:14;15.40;99.90
7894;DHT22;51343;51.396;6.656;2022-09-09T04:19:42;15.50;99.90
7894;DHT22;51343;51.396;6.656;2022-09-09T04:22:08;15.50;99.90
7894;DHT22;51343;51.396;6.656;2022-09-09T04:24:35;15.50;99.90
7894;DHT22;51343;51.396;6.656;2022-09-09T04:27:02;15.40;99.90
7894;DHT22;51343;51.396;6.656;2022-09-09T04:29:29;15.50;99.90
7894;DHT22;51343;51.396;6.656;2022-09-09T04:31:55;15.50;99.90
7894;DHT22;51343;51.396;6.656;2022-09-09T04:34:22;15.50;99.90
7894;DHT22;51343;51.396;6.656;2022-09-09T04:36:50;15.40;99.90
7894;DHT22;51343;51.396;6.656;2022-09-09T04:39:17;15.50;99.90
7894;DHT22;51343;51.396;6.656;2022-09-09T04:41:44;15.50;99.90
7894;DHT22;51343;51.396;6.656;2022-09-09T04:44:12;15.50;99.90
7894;DHT22;51343;51.396;6.656;2022-09-09T04:46:38;15.50;99.90
7894;DHT22;51343;51.396;6.656;2022-09-09T04:49:06;15.50;99.90
7894;DHT22;51343;51.396;6.656;2022-09-09T04:51:33;15.50;99.90
7894;DHT22;51343;51.396;6.656;2022-09-09T04:54:01;15.60;99.90
7894;DHT22;51343;51.396;6.656;2022-09-09T04:56:27;15.50;99.90
7894;DHT22;51343;51.396;6.656;2022-09-09T04:58:54;15.50;99.90
7894;DHT22;51343;51.396;6.656;2022-09-09T05:01:21;15.50;99.90
7894;DHT22;51343;51.396;6.656;2022-09-09T05:03:49;15.50;99.90
7894;DHT22;51343;51.396;6.656;2022-09-09T05:06:16;15.50;99.90
7894;DHT22;51343;51.396;6.656;2022-09-09T05:08:43;15.50;99.90
7894;DHT22;51343;51.396;6.656;2022-09-09T05:11:15;15.50;99.90
7894;DHT22;51343;51.396;6.656;2022-09-09T05:13:42;15.50;99.90
7894;DHT22;51343;51.396;6.656;2022-09-09T05:16:09;15.50;99.90
7894;DHT22;51343;51.396;6.656;2022-09-09T05:18:36;15.50;99.90
7894;DHT22;51343;51.396;6.656;2022-09-09T05:21:03;15.50;99.90
7894;DHT22;51343;51.396;6.656;2022-09-09T05:23:29;15.50;99.90
7894;DHT22;51343;51.396;6.656;2022-09-09T05:25:57;15.50;99.90
7894;DHT22;51343;51.396;6.656;2022-09-09T05:28:25;15.50;99.90
7894;DHT22;51343;51.396;6.656;2022-09-09T05:30:58;15.50;99.90
7894;DHT22;51343;51.396;6.656;2022-09-09T05:33:25;15.50;99.90
7894;DHT22;51343;51.396;6.656;2022-09-09T05:35:56;15.60;99.90
7894;DHT22;51343;51.396;6.656;2022-09-09T05:38:23;15.60;99.90
7894;DHT22;51343;51.396;6.656;2022-09-09T05:40:50;15.60;99.90
7894;DHT22;51343;51.396;6.656;2022-09-09T05:43:17;15.60;99.90
7894;DHT22;51343;51.396;6.656;2022-09-09T05:45:45;15.70;99.90
7894;DHT22;51343;51.396;6.656;2022-09-09T05:48:12;15.70;99.90
7894;DHT22;51343;51.396;6.656;2022-09-09T05:50:40;15.70;99.90
7894;DHT22;51343;51.396;6.656;2022-09-09T05:53:07;15.80;99.90
7894;DHT22;51343;51.396;6.656;2022-09-09T05:55:34;15.80;99.90
7894;DHT22;51343;51.396;6.656;2022-09-09T05:58:01;15.90;99.90
7894;DHT22;51343;51.396;6.656;2022-09-09T06:00:28;15.90;99.90
7894;DHT22;51343;51.396;6.656;2022-09-09T06:02:58;15.90;99.90
7894;DHT22;51343;51.396;6.656;2022-09-09T06:05:25;15.90;99.90
7894;DHT22;51343;51.396;6.656;2022-09-09T06:07:53;16.00;99.90
7894;DHT22;51343;51.396;6.656;2022-09-09T06:10:21;16.00;99.90
7894;DHT22;51343;51.396;6.656;2022-09-09T06:12:48;16.00;99.90
7894;DHT22;51343;51.396;6.656;2022-09-09T06:15:14;16.00;99.90
7894;DHT22;51343;51.396;6.656;2022-09-09T06:17:41;16.00;99.90
7894;DHT22;51343;51.396;6.656;2022-09-09T06:20:10;16.00;99.90
7894;DHT22;51343;51.396;6.656;2022-09-09T06:22:38;16.00;99.90
7894;DHT22;51343;51.396;6.656;2022-09-09T06:25:06;16.10;99.90
7894;DHT22;51343;51.396;6.656;2022-09-09T06:27:33;16.10;99.90
7894;DHT22;51343;51.396;6.656;2022-09-09T06:29:59;16.20;99.90
7894;DHT22;51343;51.396;6.656;2022-09-09T06:32:26;16.20;99.90
7894;DHT22;51343;51.396;6.656;2022-09-09T06:34:53;16.20;99.90
7894;DHT22;51343;51.396;6.656;2022-09-09T06:37:21;16.20;99.90
7894;DHT22;51343;51.396;6.656;2022-09-09T06:39:49;16.20;99.90
7894;DHT22;51343;51.396;6.656;2022-09-09T06:42:16;16.20;99.90
7894;DHT22;51343;51.396;6.656;2022-09-09T06:44:43;16.20;99.90
7894;DHT22;51343;51.396;6.656;2022-09-09T06:47:09;16.30;99.90
7894;DHT22;51343;51.396;6.656;2022-09-09T06:49:36;16.40;99.90
7894;DHT22;51343;51.396;6.656;2022-09-09T06:52:04;16.40;99.90
7894;DHT22;51343;51.396;6.656;2022-09-09T06:54:33;16.50;99.90
7894;DHT22;51343;51.396;6.656;2022-09-09T06:57:02;16.60;99.90
7894;DHT22;51343;51.396;6.656;2022-09-09T06:59:32;16.60;99.90
7894;DHT22;51343;51.396;6.656;2022-09-09T07:01:59;16.60;99.90
7894;DHT22;51343;51.396;6.656;2022-09-09T07:04:26;16.60;99.90
7894;DHT22;51343;51.396;6.656;2022-09-09T07:06:53;16.60;99.90
7894;DHT22;51343;51.396;6.656;2022-09-09T07:09:20;16.60;99.90
7894;DHT22;51343;51.396;6.656;2022-09-09T07:14:02;16.60;99.90
7894;DHT22;51343;51.396;6.656;2022-09-09T07:16:28;16.60;99.90
7894;DHT22;51343;51.396;6.656;2022-09-09T07:18:57;16.70;99.90
7894;DHT22;51343;51.396;6.656;2022-09-09T07:21:24;16.80;99.90
7894;DHT22;51343;51.396;6.656;2022-09-09T07:23:51;16.90;99.90
7894;DHT22;51343;51.396;6.656;2022-09-09T07:26:19;16.90;99.90
7894;DHT22;51343;51.396;6.656;2022-09-09T07:28:46;16.90;99.90
7894;DHT22;51343;51.396;6.656;2022-09-09T07:31:15;16.90;99.90
7894;DHT22;51343;51.396;6.656;2022-09-09T07:33:43;16.90;99.90
7894;DHT22;51343;51.396;6.656;2022-09-09T07:36:10;16.90;99.90
7894;DHT22;51343;51.396;6.656;2022-09-09T07:38:39;16.90;99.90
7894;DHT22;51343;51.396;6.656;2022-09-09T07:41:06;16.90;99.90
7894;DHT22;51343;51.396;6.656;2022-09-09T07:43:37;16.90;99.90
7894;DHT22;51343;51.396;6.656;2022-09-09T07:46:04;17.10;99.90
7894;DHT22;51343;51.396;6.656;2022-09-09T07:48:32;17.20;99.90
7894;DHT22;51343;51.396;6.656;2022-09-09T07:51:06;17.30;1.00
7894;DHT22;51343;51.396;6.656;2022-09-09T07:53:33;17.30;1.00
7894;DHT22;51343;51.396;6.656;2022-09-09T07:56:06;17.40;1.00
7894;DHT22;51343;51.396;6.656;2022-09-09T07:58:34;17.50;1.00
7894;DHT22;51343;51.396;6.656;2022-09-09T08:01:05;17.50;1.00
7894;DHT22;51343;51.396;6.656;2022-09-09T08:03:33;17.70;1.00
7894;DHT22;51343;51.396;6.656;2022-09-09T08:06:00;17.80;1.00
7894;DHT22;51343;51.396;6.656;2022-09-09T08:08:28;17.80;1.00
7894;DHT22;51343;51.396;6.656;2022-09-09T08:11:00;17.90;1.00
7894;DHT22;51343;51.396;6.656;2022-09-09T08:13:27;17.90;1.00
7894;DHT22;51343;51.396;6.656;2022-09-09T08:15:54;17.90;1.00
7894;DHT22;51343;51.396;6.656;2022-09-09T08:18:21;17.90;1.00
7894;DHT22;51343;51.396;6.656;2022-09-09T08:20:50;17.80;1.00
7894;DHT22;51343;51.396;6.656;2022-09-09T08:23:16;17.90;1.00
7894;DHT22;51343;51.396;6.656;2022-09-09T08:25:43;17.90;1.00
7894;DHT22;51343;51.396;6.656;2022-09-09T08:28:10;18.00;1.00
7894;DHT22;51343;51.396;6.656;2022-09-09T08:30:37;18.10;1.00
7894;DHT22;51343;51.396;6.656;2022-09-09T08:33:04;18.30;1.00
7894;DHT22;51343;51.396;6.656;2022-09-09T08:35:31;18.50;1.00
7894;DHT22;51343;51.396;6.656;2022-09-09T08:37:59;18.60;1.00
7894;DHT22;51343;51.396;6.656;2022-09-09T08:40:26;18.70;1.00
7894;DHT22;51343;51.396;6.656;2022-09-09T08:42:55;18.80;1.00
7894;DHT22;51343;51.396;6.656;2022-09-09T08:45:25;18.80;1.00
7894;DHT22;51343;51.396;6.656;2022-09-09T08:47:57;18.90;1.00
7894;DHT22;51343;51.396;6.656;2022-09-09T08:50:27;18.80;1.00
7894;DHT22;51343;51.396;6.656;2022-09-09T08:52:56;18.60;1.00
7894;DHT22;51343;51.396;6.656;2022-09-09T08:55:27;18.40;1.00
7894;DHT22;51343;51.396;6.656;2022-09-09T08:57:57;18.30;1.00
7894;DHT22;51343;51.396;6.656;2022-09-09T09:00:27;18.30;1.00
7894;DHT22;51343;51.396;6.656;2022-09-09T09:02:57;18.30;1.00
7894;DHT22;51343;51.396;6.656;2022-09-09T09:05:27;18.30;1.00
7894;DHT22;51343;51.396;6.656;2022-09-09T09:07:59;18.40;1.00
7894;DHT22;51343;51.396;6.656;2022-09-09T09:10:35;18.40;1.00
7894;DHT22;51343;51.396;6.656;2022-09-09T09:13:06;18.40;1.00
7894;DHT22;51343;51.396;6.656;2022-09-09T09:15:36;18.30;1.00
7894;DHT22;51343;51.396;6.656;2022-09-09T09:18:04;18.40;1.00
7894;DHT22;51343;51.396;6.656;2022-09-09T09:20:32;18.40;1.00
7894;DHT22;51343;51.396;6.656;2022-09-09T09:23:03;18.40;1.00
7894;DHT22;51343;51.396;6.656;2022-09-09T09:25:31;18.50;1.00
7894;DHT22;51343;51.396;6.656;2022-09-09T09:28:00;18.50;1.00
7894;DHT22;51343;51.396;6.656;2022-09-09T09:30:31;18.50;1.00
7894;DHT22;51343;51.396;6.656;2022-09-09T09:33:01;18.40;1.00
7894;DHT22;51343;51.396;6.656;2022-09-09T09:35:29;18.40;1.00
7894;DHT22;51343;51.396;6.656;2022-09-09T09:37:55;18.50;1.00
7894;DHT22;51343;51.396;6.656;2022-09-09T09:40:22;18.50;1.00
7894;DHT22;51343;51.396;6.656;2022-09-09T09:42:51;18.50;99.90
7894;DHT22;51343;51.396;6.656;2022-09-09T09:45:23;18.70;1.00
7894;DHT22;51343;51.396;6.656;2022-09-09T09:47:57;18.90;99.90
7894;DHT22;51343;51.396;6.656;2022-09-09T09:50:24;18.90;99.90
7894;DHT22;51343;51.396;6.656;2022-09-09T09:52:54;19.00;99.90
7894;DHT22;51343;51.396;6.656;2022-09-09T09:55:22;19.00;99.90
7894;DHT22;51343;51.396;6.656;2022-09-09T09:57:49;19.20;99.90
7894;DHT22;51343;51.396;6.656;2022-09-09T10:00:16;19.60;99.90
7894;DHT22;51343;51.396;6.656;2022-09-09T10:02:45;19.50;99.90
7894;DHT22;51343;51.396;6.656;2022-09-09T10:05:13;19.50;99.90
7894;DHT22;51343;51.396;6.656;2022-09-09T10:07:40;19.60;99.90
7894;DHT22;51343;51.396;6.656;2022-09-09T10:10:10;19.70;99.90
7894;DHT22;51343;51.396;6.656;2022-09-09T10:12:41;19.70;99.90
7894;DHT22;51343;51.396;6.656;2022-09-09T10:15:15;19.70;99.90
7894;DHT22;51343;51.396;6.656;2022-09-09T10:17:48;19.50;99.90
7894;DHT22;51343;51.396;6.656;2022-09-09T10:34:37;19.00;99.90
7894;DHT22;51343;51.396;6.656;2022-09-09T10:37:11;18.90;99.90
7894;DHT22;51343;51.396;6.656;2022-09-09T10:39:43;18.80;99.90
7894;DHT22;51343;51.396;6.656;2022-09-09T10:42:09;18.80;99.90
7894;DHT22;51343;51.396;6.656;2022-09-09T10:44:45;18.80;99.90
7894;DHT22;51343;51.396;6.656;2022-09-09T10:47:31;18.90;99.90
7894;DHT22;51343;51.396;6.656;2022-09-09T10:52:47;19.20;99.90
7894;DHT22;51343;51.396;6.656;2022-09-09T10:55:18;19.60;99.90
7894;DHT22;51343;51.396;6.656;2022-09-09T10:57:45;19.90;99.90
7894;DHT22;51343;51.396;6.656;2022-09-09T11:00:15;19.90;99.90
7894;DHT22;51343;51.396;6.656;2022-09-09T11:02:42;19.90;99.90
7894;DHT22;51343;51.396;6.656;2022-09-09T11:05:12;19.70;99.90
7894;DHT22;51343;51.396;6.656;2022-09-09T11:07:41;19.50;99.90
7894;DHT22;51343;51.396;6.656;2022-09-09T11:10:16;19.40;99.90
7894;DHT22;51343;51.396;6.656;2022-09-09T11:12:44;19.30;99.90
7894;DHT22;51343;51.396;6.656;2022-09-09T11:15:14;19.40;99.90
7894;DHT22;51343;51.396;6.656;2022-09-09T11:17:43;19.40;99.90
7894;DHT22;51343;51.396;6.656;2022-09-09T11:20:12;19.60;99.90
7894;DHT22;51343;51.396;6.656;2022-09-09T11:22:42;19.60;99.90
7894;DHT22;51343;51.396;6.656;2022-09-09T11:25:13;19.70;99.90
7894;DHT22;51343;51.396;6.656;2022-09-09T11:27:43;19.80;99.90
7894;DHT22;51343;51.396;6.656;2022-09-09T11:35:44;19.70;99.90
7894;DHT22;51343;51.396;6.656;2022-09-09T11:38:19;19.70;99.90
7894;DHT22;51343;51.396;6.656;2022-09-09T11:40:46;19.70;99.90
7894;DHT22;51343;51.396;6.656;2022-09-09T11:43:15;19.60;99.90
7894;DHT22;51343;51.396;6.656;2022-09-09T11:45:50;19.50;99.90
7894;DHT22;51343;51.396;6.656;2022-09-09T11:48:25;19.50;99.90
7894;DHT22;51343;51.396;6.656;2022-09-09T11:50:59;20.10;99.90
7894;DHT22;51343;51.396;6.656;2022-09-09T11:53:26;20.40;99.90
7894;DHT22;51343;51.396;6.656;2022-09-09T11:56:06;20.40;99.90
7894;DHT22;51343;51.396;6.656;2022-09-09T11:58:37;20.10;99.90
7894;DHT22;51343;51.396;6.656;2022-09-09T12:01:13;19.90;99.90
7894;DHT22;51343;51.396;6.656;2022-09-09T12:03:40;19.80;99.90
7894;DHT22;51343;51.396;6.656;2022-09-09T12:06:13;19.90;99.90
7894;DHT22;51343;51.396;6.656;2022-09-09T12:08:42;19.90;99.90
7894;DHT22;51343;51.396;6.656;2022-09-09T12:11:10;19.70;99.90
7894;DHT22;51343;51.396;6.656;2022-09-09T12:13:38;19.80;99.90
7894;DHT22;51343;51.396;6.656;2022-09-09T12:16:26;19.90;99.90
7894;DHT22;51343;51.396;6.656;2022-09-09T12:19:02;20.10;99.90
7894;DHT22;51343;51.396;6.656;2022-09-09T12:21:30;20.00;99.90
7894;DHT22;51343;51.396;6.656;2022-09-09T12:24:02;19.80;99.90
7894;DHT22;51343;51.396;6.656;2022-09-09T12:26:32;19.70;99.90
7894;DHT22;51343;51.396;6.656;2022-09-09T12:29:08;18.90;1.00
7894;DHT22;51343;51.396;6.656;2022-09-09T12:31:39;18.50;1.00
7894;DHT22;51343;51.396;6.656;2022-09-09T12:34:11;18.40;1.00
7894;DHT22;51343;51.396;6.656;2022-09-09T12:36:39;18.40;1.00
7894;DHT22;51343;51.396;6.656;2022-09-09T12:39:10;18.40;1.00
7894;DHT22;51343;51.396;6.656;2022-09-09T12:41:50;18.40;99.90
7894;DHT22;51343;51.396;6.656;2022-09-09T12:44:19;18.30;1.00
7894;DHT22;51343;51.396;6.656;2022-09-09T12:46:46;18.30;1.00
7894;DHT22;51343;51.396;6.656;2022-09-09T12:49:23;18.30;1.00
7894;DHT22;51343;51.396;6.656;2022-09-09T12:51:51;18.30;1.00
7894;DHT22;51343;51.396;6.656;2022-09-09T12:54:18;18.20;99.90
7894;DHT22;51343;51.396;6.656;2022-09-09T12:56:45;18.00;99.90
7894;DHT22;51343;51.396;6.656;2022-09-09T12:59:17;17.70;1.00
7894;DHT22;51343;51.396;6.656;2022-09-09T13:01:55;17.70;1.00
7894;DHT22;51343;51.396;6.656;2022-09-09T13:04:22;17.70;1.00
7894;DHT22;51343;51.396;6.656;2022-09-09T13:06:49;17.80;99.90
7894;DHT22;51343;51.396;6.656;2022-09-09T13:09:17;17.90;1.00
7894;DHT22;51343;51.396;6.656;2022-09-09T13:11:45;18.00;99.90
7894;DHT22;51343;51.396;6.656;2022-09-09T13:14:13;18.50;1.00
7894;DHT22;51343;51.396;6.656;2022-09-09T13:16:53;18.80;1.00
7894;DHT22;51343;51.396;6.656;2022-09-09T13:19:21;19.30;99.90
7894;DHT22;51343;51.396;6.656;2022-09-09T13:21:51;20.00;1.00
7894;DHT22;51343;51.396;6.656;2022-09-09T13:24:24;20.20;1.00
7894;DHT22;51343;51.396;6.656;2022-09-09T13:26:53;21.00;1.00
7894;DHT22;51343;51.396;6.656;2022-09-09T13:29:21;21.40;99.90
7894;DHT22;51343;51.396;6.656;2022-09-09T13:31:48;21.80;99.90
7894;DHT22;51343;51.396;6.656;2022-09-09T13:34:26;21.60;99.90
7894;DHT22;51343;51.396;6.656;2022-09-09T13:36:54;21.70;99.90
7894;DHT22;51343;51.396;6.656;2022-09-09T13:39:22;22.30;99.90
7894;DHT22;51343;51.396;6.656;2022-09-09T13:41:49;22.70;99.90
7894;DHT22;51343;51.396;6.656;2022-09-09T13:44:17;22.10;99.90
7894;DHT22;51343;51.396;6.656;2022-09-09T13:46:45;22.00;99.90
7894;DHT22;51343;51.396;6.656;2022-09-09T13:49:19;22.30;99.90
7894;DHT22;51343;51.396;6.656;2022-09-09T13:51:48;22.50;99.90
7894;DHT22;51343;51.396;6.656;2022-09-09T13:54:16;22.50;99.90
7894;DHT22;51343;51.396;6.656;2022-09-09T13:56:43;22.90;99.90
7894;DHT22;51343;51.396;6.656;2022-09-09T13:59:11;22.80;99.90
7894;DHT22;51343;51.396;6.656;2022-09-09T14:01:38;22.00;99.90
7894;DHT22;51343;51.396;6.656;2022-09-09T14:04:04;21.50;99.90
7894;DHT22;51343;51.396;6.656;2022-09-09T14:06:31;21.10;99.90
7894;DHT22;51343;51.396;6.656;2022-09-09T14:08:59;20.70;99.90
7894;DHT22;51343;51.396;6.656;2022-09-09T14:11:26;20.60;99.90
7894;DHT22;51343;51.396;6.656;2022-09-09T14:13:53;20.60;99.90
7894;DHT22;51343;51.396;6.656;2022-09-09T14:16:19;20.60;99.90
7894;DHT22;51343;51.396;6.656;2022-09-09T14:18:47;20.40;99.90
7894;DHT22;51343;51.396;6.656;2022-09-09T14:21:13;20.10;99.90
7894;DHT22;51343;51.396;6.656;2022-09-09T14:23:41;19.90;99.90
7894;DHT22;51343;51.396;6.656;2022-09-09T14:26:09;19.70;99.90
7894;DHT22;51343;51.396;6.656;2022-09-09T14:28:36;19.40;99.90
7894;DHT22;51343;51.396;6.656;2022-09-09T14:31:03;18.30;1.00
7894;DHT22;51343;51.396;6.656;2022-09-09T14:33:30;17.00;68.70
7894;DHT22;51343;51.396;6.656;2022-09-09T14:35:57;16.10;99.90
7894;DHT22;51343;51.396;6.656;2022-09-09T14:38:24;15.70;99.90
7894;DHT22;51343;51.396;6.656;2022-09-09T14:40:51;15.40;1.00
7894;DHT22;51343;51.396;6.656;2022-09-09T14:43:19;15.30;99.90
7894;DHT22;51343;51.396;6.656;2022-09-09T14:45:46;15.30;99.90
7894;DHT22;51343;51.396;6.656;2022-09-09T14:48:13;15.20;99.90
7894;DHT22;51343;51.396;6.656;2022-09-09T14:50:40;15.20;99.90
7894;DHT22;51343;51.396;6.656;2022-09-09T14:53:08;15.30;99.90
7894;DHT22;51343;51.396;6.656;2022-09-09T14:55:35;15.40;99.90
7894;DHT22;51343;51.396;6.656;2022-09-09T14:58:02;15.30;99.90
7894;DHT22;51343;51.396;6.656;2022-09-09T15:00:30;15.30;99.90
7894;DHT22;51343;51.396;6.656;2022-09-09T15:02:56;15.30;99.90
7894;DHT22;51343;51.396;6.656;2022-09-09T15:05:23;15.40;99.90
7894;DHT22;51343;51.396;6.656;2022-09-09T15:07:50;15.30;99.90
7894;DHT22;51343;51.396;6.656;2022-09-09T15:10:17;15.40;99.90
7894;DHT22;51343;51.396;6.656;2022-09-09T15:12:43;15.40;99.90
7894;DHT22;51343;51.396;6.656;2022-09-09T15:15:10;15.50;99.90
7894;DHT22;51343;51.396;6.656;2022-09-09T15:17:39;15.60;99.90
7894;DHT22;51343;51.396;6.656;2022-09-09T15:20:06;15.70;99.90
7894;DHT22;51343;51.396;6.656;2022-09-09T15:22:33;15.90;99.90
7894;DHT22;51343;51.396;6.656;2022-09-09T15:25:02;16.00;99.90
7894;DHT22;51343;51.396;6.656;2022-09-09T15:27:28;16.30;99.90
7894;DHT22;51343;51.396;6.656;2022-09-09T15:29:56;16.50;99.90
7894;DHT22;51343;51.396;6.656;2022-09-09T15:32:23;16.60;99.90
7894;DHT22;51343;51.396;6.656;2022-09-09T15:34:51;16.60;99.90
7894;DHT22;51343;51.396;6.656;2022-09-09T15:37:18;16.60;99.90
7894;DHT22;51343;51.396;6.656;2022-09-09T15:39:45;16.70;99.90
7894;DHT22;51343;51.396;6.656;2022-09-09T15:42:11;16.80;99.90
7894;DHT22;51343;51.396;6.656;2022-09-09T15:44:38;16.90;99.90
7894;DHT22;51343;51.396;6.656;2022-09-09T15:47:05;16.90;99.90
7894;DHT22;51343;51.396;6.656;2022-09-09T15:49:32;16.90;99.90
7894;DHT22;51343;51.396;6.656;2022-09-09T15:52:01;17.00;99.90
7894;DHT22;51343;51.396;6.656;2022-09-09T15:54:30;16.90;99.90
7894;DHT22;51343;51.396;6.656;2022-09-09T15:56:58;16.90;99.90
7894;DHT22;51343;51.396;6.656;2022-09-09T15:59:25;16.90;99.90
7894;DHT22;51343;51.396;6.656;2022-09-09T16:01:53;16.90;99.90
7894;DHT22;51343;51.396;6.656;2022-09-09T16:04:20;16.90;99.90
7894;DHT22;51343;51.396;6.656;2022-09-09T16:06:49;17.00;99.90
7894;DHT22;51343;51.396;6.656;2022-09-09T16:09:17;17.00;99.90
7894;DHT22;51343;51.396;6.656;2022-09-09T16:11:44;17.00;99.90
7894;DHT22;51343;51.396;6.656;2022-09-09T16:14:12;16.90;99.90
7894;DHT22;51343;51.396;6.656;2022-09-09T16:16:38;16.90;99.90
7894;DHT22;51343;51.396;6.656;2022-09-09T16:19:06;16.90;99.90
7894;DHT22;51343;51.396;6.656;2022-09-09T16:21:36;16.80;99.90
7894;DHT22;51343;51.396;6.656;2022-09-09T16:24:03;16.90;99.90
7894;DHT22;51343;51.396;6.656;2022-09-09T16:26:32;16.80;99.90
7894;DHT22;51343;51.396;6.656;2022-09-09T16:28:59;16.80;99.90